Stonetown, Pennsylvania
Current Conditions -  °F | °C
As of 6:54 AM on Thursday 29 Jan 2015 (Local Time) from KRDG Reporting Station
Clear Clear  
Wind Chill:   Ceiling: Unl
Heat Index:   Visibility: 10mi
Dew Point:   Wind: 5mph
Humidity: 76%   Direction: 310°NW
Pressure: 30.32"   Gusts: NA
Location:  40.2313°N, 75.8555°W
Report Text: KRDG 291154Z 31004KT 10SM CLR M13/M17 A3032 RMK AO2 SLP278 T11331167 11083 21139 53004
Loading
Personal Weather Stations






























Interactive Weather Map New forecast layout! Learn more

10-Day Weather Forecast

Advertisements
Track Severe Weather on mobile